sensor_id;sensor_type;location;lat;lon;timestamp;pressure;altitude;pressure_sealevel;temperature;humidity
50550;BME280;36505;52.512;13.460;2023-04-25T00:01:35;100041.38;;;8.85;70.06
50550;BME280;36505;52.512;13.460;2023-04-25T00:04:01;100038.25;;;8.76;70.03
50550;BME280;36505;52.512;13.460;2023-04-25T00:06:28;100031.81;;;8.65;70.25
50550;BME280;36505;52.512;13.460;2023-04-25T00:08:55;100036.75;;;8.68;70.03
50550;BME280;36505;52.512;13.460;2023-04-25T00:11:21;100030.16;;;8.64;70.31
50550;BME280;36505;52.512;13.460;2023-04-25T00:13:47;100033.47;;;8.66;69.99
50550;BME280;36505;52.512;13.460;2023-04-25T00:16:14;100031.47;;;8.62;69.75
50550;BME280;36505;52.512;13.460;2023-04-25T00:18:41;100037.75;;;8.62;69.77
50550;BME280;36505;52.512;13.460;2023-04-25T00:21:07;100031.81;;;8.65;69.38
50550;BME280;36505;52.512;13.460;2023-04-25T00:23:32;100035.09;;;8.67;69.13
50550;BME280;36505;52.512;13.460;2023-04-25T00:25:58;100038.94;;;8.66;68.77
50550;BME280;36505;52.512;13.460;2023-04-25T00:28:23;100024.34;;;8.61;69.17
50550;BME280;36505;52.512;13.460;2023-04-25T00:30:48;100037.25;;;8.65;68.59
50550;BME280;36505;52.512;13.460;2023-04-25T00:33:14;100035.38;;;8.66;68.52
50550;BME280;36505;52.512;13.460;2023-04-25T00:35:39;100034.84;;;8.69;68.10
50550;BME280;36505;52.512;13.460;2023-04-25T00:38:05;100033.78;;;8.70;68.13
50550;BME280;36505;52.512;13.460;2023-04-25T00:40:30;100033.78;;;8.70;67.85
50550;BME280;36505;52.512;13.460;2023-04-25T00:42:55;100029.97;;;8.71;67.83
50550;BME280;36505;52.512;13.460;2023-04-25T00:45:21;100028.56;;;8.68;67.71
50550;BME280;36505;52.512;13.460;2023-04-25T00:47:46;100019.06;;;8.71;67.91
50550;BME280;36505;52.512;13.460;2023-04-25T00:50:14;100021.53;;;8.73;67.89
50550;BME280;36505;52.512;13.460;2023-04-25T00:52:42;100033.59;;;8.77;67.97
50550;BME280;36505;52.512;13.460;2023-04-25T00:55:08;100025.81;;;8.85;67.69
50550;BME280;36505;52.512;13.460;2023-04-25T00:57:35;100025.00;;;8.85;67.44
50550;BME280;36505;52.512;13.460;2023-04-25T01:00:01;100028.81;;;8.84;67.68
50550;BME280;36505;52.512;13.460;2023-04-25T01:02:26;100031.84;;;8.87;67.58
50550;BME280;36505;52.512;13.460;2023-04-25T01:04:52;100020.38;;;8.85;67.58
50550;BME280;36505;52.512;13.460;2023-04-25T01:07:18;100019.38;;;8.91;67.38
50550;BME280;36505;52.512;13.460;2023-04-25T01:09:43;100014.31;;;8.83;67.91
50550;BME280;36505;52.512;13.460;2023-04-25T01:12:09;100017.88;;;8.84;67.50
50550;BME280;36505;52.512;13.460;2023-04-25T01:14:34;100009.03;;;8.77;67.88
50550;BME280;36505;52.512;13.460;2023-04-25T01:17:00;100014.19;;;8.73;67.95
50550;BME280;36505;52.512;13.460;2023-04-25T01:19:25;100009.63;;;8.79;68.03
50550;BME280;36505;52.512;13.460;2023-04-25T01:21:51;100009.63;;;8.79;67.74
50550;BME280;36505;52.512;13.460;2023-04-25T01:24:17;100004.34;;;8.72;67.92
50550;BME280;36505;52.512;13.460;2023-04-25T01:26:43;100006.00;;;8.73;67.95
50550;BME280;36505;52.512;13.460;2023-04-25T01:29:18;100000.25;;;8.75;68.26
50550;BME280;36505;52.512;13.460;2023-04-25T01:31:45;100013.44;;;8.78;67.96
50550;BME280;36505;52.512;13.460;2023-04-25T01:34:11;100014.00;;;8.80;67.64
50550;BME280;36505;52.512;13.460;2023-04-25T01:36:36;100014.91;;;8.85;67.69
50550;BME280;36505;52.512;13.460;2023-04-25T01:39:02;100011.09;;;8.86;67.28
50550;BME280;36505;52.512;13.460;2023-04-25T01:41:28;100011.66;;;8.88;67.58
50550;BME280;36505;52.512;13.460;2023-04-25T01:43:53;100015.31;;;8.94;67.28
50550;BME280;36505;52.512;13.460;2023-04-25T01:46:19;100009.50;;;8.90;67.54
50550;BME280;36505;52.512;13.460;2023-04-25T01:48:44;100011.75;;;8.93;67.37
50550;BME280;36505;52.512;13.460;2023-04-25T01:51:11;99999.66;;;8.89;67.01
50550;BME280;36505;52.512;13.460;2023-04-25T01:53:37;100012.59;;;8.94;67.08
50550;BME280;36505;52.512;13.460;2023-04-25T01:56:03;100011.56;;;9.00;67.34
50550;BME280;36505;52.512;13.460;2023-04-25T01:58:28;99999.81;;;8.99;67.08
50550;BME280;36505;52.512;13.460;2023-04-25T02:00:54;100008.66;;;9.06;66.62
50550;BME280;36505;52.512;13.460;2023-04-25T02:03:19;100011.41;;;9.06;66.57
50550;BME280;36505;52.512;13.460;2023-04-25T02:05:45;100021.50;;;9.06;66.66
50550;BME280;36505;52.512;13.460;2023-04-25T02:08:10;99991.53;;;8.94;66.89
50550;BME280;36505;52.512;13.460;2023-04-25T02:10:35;100016.56;;;9.08;66.97
50550;BME280;36505;52.512;13.460;2023-04-25T02:13:01;100000.47;;;9.06;66.53
50550;BME280;36505;52.512;13.460;2023-04-25T02:15:26;100017.56;;;9.19;66.63
50550;BME280;36505;52.512;13.460;2023-04-25T02:17:52;99998.03;;;9.10;66.69
50550;BME280;36505;52.512;13.460;2023-04-25T02:20:18;100017.31;;;9.20;66.12
50550;BME280;36505;52.512;13.460;2023-04-25T02:22:45;100013.16;;;9.18;66.36
50550;BME280;36505;52.512;13.460;2023-04-25T02:25:11;100009.31;;;9.14;65.97
50550;BME280;36505;52.512;13.460;2023-04-25T02:27:36;100023.50;;;9.16;66.26
50550;BME280;36505;52.512;13.460;2023-04-25T02:30:02;100004.75;;;9.02;66.10
50550;BME280;36505;52.512;13.460;2023-04-25T02:32:28;100019.06;;;9.09;66.82
50550;BME280;36505;52.512;13.460;2023-04-25T02:34:53;99994.44;;;9.04;66.33
50550;BME280;36505;52.512;13.460;2023-04-25T02:37:19;99996.50;;;8.97;66.58
50550;BME280;36505;52.512;13.460;2023-04-25T02:39:44;100019.00;;;9.04;66.56
50550;BME280;36505;52.512;13.460;2023-04-25T02:42:10;100014.03;;;9.01;66.68
50550;BME280;36505;52.512;13.460;2023-04-25T02:44:35;100012.41;;;9.00;66.46
50550;BME280;36505;52.512;13.460;2023-04-25T02:47:01;100001.16;;;8.97;66.55
50550;BME280;36505;52.512;13.460;2023-04-25T02:49:26;99995.63;;;8.92;66.40
50550;BME280;36505;52.512;13.460;2023-04-25T02:51:51;99998.00;;;8.88;67.05
50550;BME280;36505;52.512;13.460;2023-04-25T02:54:17;100013.72;;;8.98;66.95
50550;BME280;36505;52.512;13.460;2023-04-25T02:56:42;99994.72;;;8.86;67.02
50550;BME280;36505;52.512;13.460;2023-04-25T02:59:07;100014.84;;;9.02;67.04
50550;BME280;36505;52.512;13.460;2023-04-25T03:01:33;100003.63;;;8.98;67.03
50550;BME280;36505;52.512;13.460;2023-04-25T03:03:58;100005.00;;;9.01;66.55
50550;BME280;36505;52.512;13.460;2023-04-25T03:06:24;100005.59;;;9.03;66.66
50550;BME280;36505;52.512;13.460;2023-04-25T03:08:49;100007.84;;;9.06;66.59
50550;BME280;36505;52.512;13.460;2023-04-25T03:11:15;100002.22;;;8.96;66.76
50550;BME280;36505;52.512;13.460;2023-04-25T03:13:40;100000.75;;;8.88;66.84
50550;BME280;36505;52.512;13.460;2023-04-25T03:16:05;99999.09;;;8.87;66.91
50550;BME280;36505;52.512;13.460;2023-04-25T03:18:31;100007.28;;;8.87;66.76
50550;BME280;36505;52.512;13.460;2023-04-25T03:20:56;100010.94;;;8.93;67.05
50550;BME280;36505;52.512;13.460;2023-04-25T03:23:22;100009.75;;;8.89;67.18
50550;BME280;36505;52.512;13.460;2023-04-25T03:25:47;99997.63;;;8.80;67.29
50550;BME280;36505;52.512;13.460;2023-04-25T03:28:13;100022.16;;;8.96;67.53
50550;BME280;36505;52.512;13.460;2023-04-25T03:30:38;100013.47;;;8.99;66.67
50550;BME280;36505;52.512;13.460;2023-04-25T03:33:04;100008.69;;;8.90;66.95
50550;BME280;36505;52.512;13.460;2023-04-25T03:35:29;100009.28;;;8.92;66.91
50550;BME280;36505;52.512;13.460;2023-04-25T03:37:55;100017.53;;;8.97;67.47
50550;BME280;36505;52.512;13.460;2023-04-25T03:40:20;100016.94;;;8.95;67.25
50550;BME280;36505;52.512;13.460;2023-04-25T03:42:46;100014.56;;;8.98;66.94
50550;BME280;36505;52.512;13.460;2023-04-25T03:45:11;100000.91;;;8.82;67.28
50550;BME280;36505;52.512;13.460;2023-04-25T03:47:37;100018.34;;;8.97;67.33
50550;BME280;36505;52.512;13.460;2023-04-25T03:50:02;100009.56;;;8.95;67.43
50550;BME280;36505;52.512;13.460;2023-04-25T03:52:28;100012.06;;;8.97;67.10
50550;BME280;36505;52.512;13.460;2023-04-25T03:54:53;100026.44;;;9.09;67.86
50550;BME280;36505;52.512;13.460;2023-04-25T03:57:21;100005.28;;;8.99;67.62
50550;BME280;36505;52.512;13.460;2023-04-25T03:59:47;100018.50;;;9.07;67.34
50550;BME280;36505;52.512;13.460;2023-04-25T04:02:12;100023.78;;;9.14;67.25
50550;BME280;36505;52.512;13.460;2023-04-25T04:04:38;99992.31;;;8.90;67.67
50550;BME280;36505;52.512;13.460;2023-04-25T04:07:03;100031.97;;;9.14;67.15
50550;BME280;36505;52.512;13.460;2023-04-25T04:09:28;100034.06;;;9.07;67.22
50550;BME280;36505;52.512;13.460;2023-04-25T04:11:54;100029.94;;;9.04;67.11
50550;BME280;36505;52.512;13.460;2023-04-25T04:14:22;100045.31;;;9.10;67.58
50550;BME280;36505;52.512;13.460;2023-04-25T04:16:48;100030.41;;;9.01;67.93
50550;BME280;36505;52.512;13.460;2023-04-25T04:19:14;100035.44;;;9.09;67.73
50550;BME280;36505;52.512;13.460;2023-04-25T04:21:40;100030.09;;;8.98;67.73
50550;BME280;36505;52.512;13.460;2023-04-25T04:24:05;100026.06;;;9.00;68.21
50550;BME280;36505;52.512;13.460;2023-04-25T04:26:32;100047.53;;;9.14;68.04
50550;BME280;36505;52.512;13.460;2023-04-25T04:28:58;100045.00;;;9.07;67.80
50550;BME280;36505;52.512;13.460;2023-04-25T04:31:25;100035.31;;;8.99;67.34
50550;BME280;36505;52.512;13.460;2023-04-25T04:33:51;100049.94;;;9.10;67.45
50550;BME280;36505;52.512;13.460;2023-04-25T04:36:17;100028.50;;;9.02;67.67
50550;BME280;36505;52.512;13.460;2023-04-25T04:38:45;100002.41;;;8.89;67.65
50550;BME280;36505;52.512;13.460;2023-04-25T04:41:10;100052.88;;;9.25;67.29
50550;BME280;36505;52.512;13.460;2023-04-25T04:43:35;100060.91;;;9.32;67.59
50550;BME280;36505;52.512;13.460;2023-04-25T04:46:02;100051.94;;;9.36;66.92
50550;BME280;36505;52.512;13.460;2023-04-25T04:48:28;100050.56;;;9.34;66.82
50550;BME280;36505;52.512;13.460;2023-04-25T04:50:54;100055.50;;;9.37;66.89
50550;BME280;36505;52.512;13.460;2023-04-25T04:53:19;100035.91;;;9.23;66.98
50550;BME280;36505;52.512;13.460;2023-04-25T04:55:44;100058.81;;;9.39;66.98
50550;BME280;36505;52.512;13.460;2023-04-25T04:58:11;100055.75;;;9.35;66.73
50550;BME280;36505;52.512;13.460;2023-04-25T05:00:36;100062.13;;;9.41;66.78
50550;BME280;36505;52.512;13.460;2023-04-25T05:03:02;100064.84;;;9.41;66.78
50550;BME280;36505;52.512;13.460;2023-04-25T05:05:27;100055.25;;;9.38;66.90
50550;BME280;36505;52.512;13.460;2023-04-25T05:07:53;100052.50;;;9.38;67.19
50550;BME280;36505;52.512;13.460;2023-04-25T05:10:19;100073.41;;;9.49;66.90
50550;BME280;36505;52.512;13.460;2023-04-25T05:12:45;100049.19;;;9.36;66.62
50550;BME280;36505;52.512;13.460;2023-04-25T05:15:11;100066.47;;;9.42;66.42
50550;BME280;36505;52.512;13.460;2023-04-25T05:17:36;100062.69;;;9.43;66.32
50550;BME280;36505;52.512;13.460;2023-04-25T05:20:02;100067.72;;;9.51;66.78
50550;BME280;36505;52.512;13.460;2023-04-25T05:22:27;100075.41;;;9.54;66.44
50550;BME280;36505;52.512;13.460;2023-04-25T05:24:53;100063.41;;;9.55;66.61
50550;BME280;36505;52.512;13.460;2023-04-25T05:27:19;100072.09;;;9.52;66.39
50550;BME280;36505;52.512;13.460;2023-04-25T05:29:45;100056.38;;;9.42;66.62
50550;BME280;36505;52.512;13.460;2023-04-25T05:32:10;100079.47;;;9.51;67.20
50550;BME280;36505;52.512;13.460;2023-04-25T05:34:36;100081.44;;;9.56;66.82
50550;BME280;36505;52.512;13.460;2023-04-25T05:37:02;100060.66;;;9.55;66.44
50550;BME280;36505;52.512;13.460;2023-04-25T05:39:27;100051.00;;;9.47;66.07
50550;BME280;36505;52.512;13.460;2023-04-25T05:41:53;100064.97;;;9.51;66.51
50550;BME280;36505;52.512;13.460;2023-04-25T05:44:21;100074.44;;;9.65;66.26
50550;BME280;36505;52.512;13.460;2023-04-25T05:46:47;100081.63;;;9.71;65.99
50550;BME280;36505;52.512;13.460;2023-04-25T05:49:15;100089.78;;;9.66;66.14
50550;BME280;36505;52.512;13.460;2023-04-25T05:51:42;100072.97;;;9.58;67.04
50550;BME280;36505;52.512;13.460;2023-04-25T05:54:08;100093.91;;;9.69;66.22
50550;BME280;36505;52.512;13.460;2023-04-25T05:56:33;100085.88;;;9.62;66.17
50550;BME280;36505;52.512;13.460;2023-04-25T05:58:58;100097.19;;;9.71;66.75
50550;BME280;36505;52.512;13.460;2023-04-25T06:01:24;100076.34;;;9.65;66.37
50550;BME280;36505;52.512;13.460;2023-04-25T06:03:49;100095.88;;;9.73;66.52
50550;BME280;36505;52.512;13.460;2023-04-25T06:06:16;100094.16;;;9.67;66.47
50550;BME280;36505;52.512;13.460;2023-04-25T06:08:42;100104.06;;;9.73;67.21
50550;BME280;36505;52.512;13.460;2023-04-25T06:11:07;100090.25;;;9.63;66.79
50550;BME280;36505;52.512;13.460;2023-04-25T06:13:32;100093.59;;;9.65;67.48
50550;BME280;36505;52.512;13.460;2023-04-25T06:15:58;100104.56;;;9.70;67.13
50550;BME280;36505;52.512;13.460;2023-04-25T06:18:23;100099.19;;;9.75;67.06
50550;BME280;36505;52.512;13.460;2023-04-25T06:20:48;100104.84;;;9.69;66.95
50550;BME280;36505;52.512;13.460;2023-04-25T06:23:14;100100.53;;;9.73;67.41
50550;BME280;36505;52.512;13.460;2023-04-25T06:25:39;100088.69;;;9.67;67.61
50550;BME280;36505;52.512;13.460;2023-04-25T06:28:05;100105.84;;;9.84;67.61
50550;BME280;36505;52.512;13.460;2023-04-25T06:30:30;100085.81;;;9.79;67.42
50550;BME280;36505;52.512;13.460;2023-04-25T06:32:56;100104.31;;;9.94;67.07
50550;BME280;36505;52.512;13.460;2023-04-25T06:35:21;100094.97;;;9.89;67.02
50550;BME280;36505;52.512;13.460;2023-04-25T06:37:46;100107.16;;;10.04;67.35
50550;BME280;36505;52.512;13.460;2023-04-25T06:40:12;100100.63;;;10.05;66.87
50550;BME280;36505;52.512;13.460;2023-04-25T06:42:37;100110.28;;;10.12;67.10
50550;BME280;36505;52.512;13.460;2023-04-25T06:45:03;100113.84;;;10.13;66.30
50550;BME280;36505;52.512;13.460;2023-04-25T06:47:28;100091.91;;;10.08;66.71
50550;BME280;36505;52.512;13.460;2023-04-25T06:49:55;100111.50;;;10.21;66.84
50550;BME280;36505;52.512;13.460;2023-04-25T06:52:20;100097.38;;;10.08;66.33
50550;BME280;36505;52.512;13.460;2023-04-25T06:54:46;100116.97;;;10.21;66.10
50550;BME280;36505;52.512;13.460;2023-04-25T06:57:11;100097.19;;;10.14;66.39
50550;BME280;36505;52.512;13.460;2023-04-25T06:59:37;100113.66;;;10.19;66.28
50550;BME280;36505;52.512;13.460;2023-04-25T07:02:02;100100.13;;;10.08;66.43
50550;BME280;36505;52.512;13.460;2023-04-25T07:04:28;100119.38;;;10.18;66.95
50550;BME280;36505;52.512;13.460;2023-04-25T07:06:54;100109.16;;;10.08;66.61
50550;BME280;36505;52.512;13.460;2023-04-25T07:09:20;100116.06;;;10.16;66.87
50550;BME280;36505;52.512;13.460;2023-04-25T07:11:45;100116.00;;;10.11;66.72
50550;BME280;36505;52.512;13.460;2023-04-25T07:14:10;100118.72;;;10.11;66.96
50550;BME280;36505;52.512;13.460;2023-04-25T07:16:36;100109.00;;;9.98;67.19
50550;BME280;36505;52.512;13.460;2023-04-25T07:19:01;100133.44;;;10.05;67.75
50550;BME280;36505;52.512;13.460;2023-04-25T07:21:26;100141.41;;;10.06;67.65
50550;BME280;36505;52.512;13.460;2023-04-25T07:23:52;100138.91;;;10.05;67.36
50550;BME280;36505;52.512;13.460;2023-04-25T07:26:17;100123.72;;;9.92;68.41
50550;BME280;36505;52.512;13.460;2023-04-25T07:28:42;100144.47;;;9.88;67.82
50550;BME280;36505;52.512;13.460;2023-04-25T07:31:08;100139.50;;;9.85;68.55
50550;BME280;36505;52.512;13.460;2023-04-25T07:33:34;100139.94;;;9.77;68.44
50550;BME280;36505;52.512;13.460;2023-04-25T07:35:59;100151.78;;;9.82;68.72
50550;BME280;36505;52.512;13.460;2023-04-25T07:38:25;100145.16;;;9.78;68.12
50550;BME280;36505;52.512;13.460;2023-04-25T07:40:50;100162.84;;;9.93;68.07
50550;BME280;36505;52.512;13.460;2023-04-25T07:43:16;100162.16;;;10.02;68.21
50550;BME280;36505;52.512;13.460;2023-04-25T07:45:45;100164.94;;;10.07;67.79
50550;BME280;36505;52.512;13.460;2023-04-25T07:48:11;100165.25;;;10.11;67.13
50550;BME280;36505;52.512;13.460;2023-04-25T07:50:36;100168.38;;;10.19;66.18
50550;BME280;36505;52.512;13.460;2023-04-25T07:53:02;100172.09;;;10.30;65.11
50550;BME280;36505;52.512;13.460;2023-04-25T07:55:28;100174.34;;;10.38;64.53
50550;BME280;36505;52.512;13.460;2023-04-25T07:57:53;100148.00;;;10.32;63.64
50550;BME280;36505;52.512;13.460;2023-04-25T08:00:19;100171.34;;;10.40;63.31
50550;BME280;36505;52.512;13.460;2023-04-25T08:02:44;100173.00;;;10.41;63.08
50550;BME280;36505;52.512;13.460;2023-04-25T08:05:10;100184.78;;;10.41;62.43
50550;BME280;36505;52.512;13.460;2023-04-25T08:07:39;100171.50;;;10.28;62.71
50550;BME280;36505;52.512;13.460;2023-04-25T08:10:06;100181.00;;;10.20;62.37
50550;BME280;36505;52.512;13.460;2023-04-25T08:12:32;100190.59;;;10.23;62.20
50550;BME280;36505;52.512;13.460;2023-04-25T08:14:57;100184.16;;;10.34;61.88
50550;BME280;36505;52.512;13.460;2023-04-25T08:17:26;100191.34;;;10.67;61.13
50550;BME280;36505;52.512;13.460;2023-04-25T08:19:51;100190.09;;;10.80;60.34
50550;BME280;36505;52.512;13.460;2023-04-25T08:22:17;100191.59;;;10.92;59.78
50550;BME280;36505;52.512;13.460;2023-04-25T08:24:42;100194.88;;;10.89;58.58
50550;BME280;36505;52.512;13.460;2023-04-25T08:27:07;100207.16;;;10.87;58.25
50550;BME280;36505;52.512;13.460;2023-04-25T08:29:33;100208.78;;;10.83;58.32
50550;BME280;36505;52.512;13.460;2023-04-25T08:31:59;100214.50;;;10.81;58.29
50550;BME280;36505;52.512;13.460;2023-04-25T08:34:24;100209.25;;;11.06;58.51
50550;BME280;36505;52.512;13.460;2023-04-25T08:36:51;100213.34;;;11.36;58.09
50550;BME280;36505;52.512;13.460;2023-04-25T08:39:16;100208.75;;;11.78;57.58
50550;BME280;36505;52.512;13.460;2023-04-25T08:41:42;100240.69;;;12.00;54.77
50550;BME280;36505;52.512;13.460;2023-04-25T08:44:10;100223.06;;;11.91;53.48
50550;BME280;36505;52.512;13.460;2023-04-25T08:46:38;100220.81;;;11.82;52.00
50550;BME280;36505;52.512;13.460;2023-04-25T08:49:04;100234.84;;;11.86;51.79
50550;BME280;36505;52.512;13.460;2023-04-25T08:51:32;100238.44;;;11.86;52.26
50550;BME280;36505;52.512;13.460;2023-04-25T08:54:08;100220.31;;;11.85;52.75
50550;BME280;36505;52.512;13.460;2023-04-25T08:56:35;100234.69;;;12.08;51.80
50550;BME280;36505;52.512;13.460;2023-04-25T08:59:01;100232.47;;;12.77;49.61
50550;BME280;36505;52.512;13.460;2023-04-25T09:01:27;100238.97;;;15.99;42.07
50550;BME280;36505;52.512;13.460;2023-04-25T09:03:52;100234.75;;;16.73;40.42
50550;BME280;36505;52.512;13.460;2023-04-25T09:06:19;100236.72;;;16.25;39.31
50550;BME280;36505;52.512;13.460;2023-04-25T09:08:44;100247.84;;;15.96;39.25
50550;BME280;36505;52.512;13.460;2023-04-25T09:11:09;100240.69;;;17.23;37.10
50550;BME280;36505;52.512;13.460;2023-04-25T09:13:35;100235.53;;;17.67;35.76
50550;BME280;36505;52.512;13.460;2023-04-25T09:16:01;100248.53;;;19.76;32.80
50550;BME280;36505;52.512;13.460;2023-04-25T09:18:34;100252.00;;;21.68;29.62
50550;BME280;36505;52.512;13.460;2023-04-25T09:21:10;100255.38;;;22.00;29.67
50550;BME280;36505;52.512;13.460;2023-04-25T09:23:47;100259.63;;;22.06;29.23
50550;BME280;36505;52.512;13.460;2023-04-25T09:26:17;100249.16;;;21.86;28.46
50550;BME280;36505;52.512;13.460;2023-04-25T09:28:43;100258.22;;;21.14;29.42
50550;BME280;36505;52.512;13.460;2023-04-25T09:31:11;100258.72;;;21.50;27.98
50550;BME280;36505;52.512;13.460;2023-04-25T09:33:37;100263.00;;;22.96;26.71
50550;BME280;36505;52.512;13.460;2023-04-25T09:36:07;100261.56;;;22.52;26.77
50550;BME280;36505;52.512;13.460;2023-04-25T09:38:44;100262.34;;;21.25;27.64
50550;BME280;36505;52.512;13.460;2023-04-25T09:41:10;100264.44;;;20.45;28.89
50550;BME280;36505;52.512;13.460;2023-04-25T09:43:36;100261.97;;;20.44;29.08
50550;BME280;36505;52.512;13.460;2023-04-25T09:46:02;100269.41;;;19.95;29.44
50550;BME280;36505;52.512;13.460;2023-04-25T09:48:28;100268.50;;;19.55;30.90
50550;BME280;36505;52.512;13.460;2023-04-25T09:53:29;100278.31;;;18.21;32.14
50550;BME280;36505;52.512;13.460;2023-04-25T09:55:55;100275.59;;;17.37;33.35
50550;BME280;36505;52.512;13.460;2023-04-25T09:58:23;100279.03;;;16.92;33.13
50550;BME280;36505;52.512;13.460;2023-04-25T10:00:51;100276.59;;;16.43;33.43
50550;BME280;36505;52.512;13.460;2023-04-25T10:03:17;100281.88;;;16.39;33.85
50550;BME280;36505;52.512;13.460;2023-04-25T10:05:43;100272.47;;;16.16;33.85
50550;BME280;36505;52.512;13.460;2023-04-25T10:08:08;100277.00;;;15.78;33.49
50550;BME280;36505;52.512;13.460;2023-04-25T10:10:35;100262.59;;;15.48;33.65
50550;BME280;36505;52.512;13.460;2023-04-25T10:13:04;100273.66;;;15.48;33.37
50550;BME280;36505;52.512;13.460;2023-04-25T10:15:33;100283.78;;;15.62;33.65
50550;BME280;36505;52.512;13.460;2023-04-25T10:18:00;100284.88;;;15.61;34.28
50550;BME280;36505;52.512;13.460;2023-04-25T10:20:26;100289.09;;;15.54;34.21
50550;BME280;36505;52.512;13.460;2023-04-25T10:22:54;100292.19;;;15.37;34.67
50550;BME280;36505;52.512;13.460;2023-04-25T10:25:22;100293.44;;;15.21;34.64
50550;BME280;36505;52.512;13.460;2023-04-25T10:27:51;100281.78;;;15.29;34.64
50550;BME280;36505;52.512;13.460;2023-04-25T10:30:18;100293.06;;;15.32;34.73
50550;BME280;36505;52.512;13.460;2023-04-25T10:32:44;100286.03;;;15.11;34.32
50550;BME280;36505;52.512;13.460;2023-04-25T10:35:15;100287.03;;;14.81;34.42
50550;BME280;36505;52.512;13.460;2023-04-25T10:38:04;100301.69;;;14.72;34.87
50550;BME280;36505;52.512;13.460;2023-04-25T10:40:31;100284.63;;;14.65;35.44
50550;BME280;36505;52.512;13.460;2023-04-25T10:46:23;100285.28;;;14.31;35.64
50550;BME280;36505;52.512;13.460;2023-04-25T10:48:59;100296.88;;;14.23;36.10
50550;BME280;36505;52.512;13.460;2023-04-25T10:51:27;100318.09;;;14.17;35.84
50550;BME280;36505;52.512;13.460;2023-04-25T10:56:37;100327.50;;;13.91;36.10
50550;BME280;36505;52.512;13.460;2023-04-25T11:01:40;100326.13;;;13.68;36.90
50550;BME280;36505;52.512;13.460;2023-04-25T11:04:19;100326.09;;;13.58;36.86
50550;BME280;36505;52.512;13.460;2023-04-25T11:09:36;100325.56;;;13.71;37.26
50550;BME280;36505;52.512;13.460;2023-04-25T11:12:03;100329.69;;;13.89;36.49
50550;BME280;36505;52.512;13.460;2023-04-25T11:14:30;100337.91;;;13.99;36.62
50550;BME280;36505;52.512;13.460;2023-04-25T11:16:56;100329.91;;;14.13;36.19
50550;BME280;36505;52.512;13.460;2023-04-25T11:19:23;100335.44;;;14.03;35.56
50550;BME280;36505;52.512;13.460;2023-04-25T11:21:49;100338.50;;;13.81;36.07
50550;BME280;36505;52.512;13.460;2023-04-25T11:24:16;100351.69;;;13.54;36.82
50550;BME280;36505;52.512;13.460;2023-04-25T11:26:43;100359.84;;;13.18;37.30
50550;BME280;36505;52.512;13.460;2023-04-25T11:29:08;100337.94;;;12.71;37.88
50550;BME280;36505;52.512;13.460;2023-04-25T11:31:33;100358.25;;;12.60;39.00
50550;BME280;36505;52.512;13.460;2023-04-25T11:34:00;100370.56;;;12.52;39.39
50550;BME280;36505;52.512;13.460;2023-04-25T11:36:26;100353.69;;;12.34;39.32
50550;BME280;36505;52.512;13.460;2023-04-25T11:38:52;100366.34;;;12.35;39.57
50550;BME280;36505;52.512;13.460;2023-04-25T11:41:18;100367.69;;;12.32;39.79
50550;BME280;36505;52.512;13.460;2023-04-25T11:43:44;100368.19;;;12.29;39.05
50550;BME280;36505;52.512;13.460;2023-04-25T11:46:09;100366.56;;;12.28;39.09
50550;BME280;36505;52.512;13.460;2023-04-25T11:48:42;100374.53;;;12.30;37.99
50550;BME280;36505;52.512;13.460;2023-04-25T11:51:08;100371.28;;;12.38;37.99
50550;BME280;36505;52.512;13.460;2023-04-25T11:53:34;100374.03;;;12.38;37.47
50550;BME280;36505;52.512;13.460;2023-04-25T11:55:59;100368.56;;;12.43;37.29
50550;BME280;36505;52.512;13.460;2023-04-25T11:58:26;100374.72;;;12.60;36.77
50550;BME280;36505;52.512;13.460;2023-04-25T12:00:51;100377.97;;;12.52;36.37
50550;BME280;36505;52.512;13.460;2023-04-25T12:03:18;100371.94;;;12.55;36.47
50550;BME280;36505;52.512;13.460;2023-04-25T12:05:45;100386.06;;;12.79;35.97
50550;BME280;36505;52.512;13.460;2023-04-25T12:08:14;100383.91;;;12.86;36.13
50550;BME280;36505;52.512;13.460;2023-04-25T12:10:42;100387.50;;;12.91;35.74
50550;BME280;36505;52.512;13.460;2023-04-25T12:13:24;100374.81;;;12.75;35.85
50550;BME280;36505;52.512;13.460;2023-04-25T12:15:50;100363.75;;;12.65;36.53
50550;BME280;36505;52.512;13.460;2023-04-25T12:18:20;100385.56;;;12.87;36.50
50550;BME280;36505;52.512;13.460;2023-04-25T12:20:46;100386.72;;;12.96;37.07
50550;BME280;36505;52.512;13.460;2023-04-25T12:23:11;100388.63;;;12.95;36.88
50550;BME280;36505;52.512;13.460;2023-04-25T12:28:20;100402.56;;;12.84;37.33
50550;BME280;36505;52.512;13.460;2023-04-25T12:30:59;100402.81;;;12.77;37.51
50550;BME280;36505;52.512;13.460;2023-04-25T12:33:27;100383.88;;;12.76;36.76
50550;BME280;36505;52.512;13.460;2023-04-25T12:35:53;100393.81;;;12.87;36.51
50550;BME280;36505;52.512;13.460;2023-04-25T12:38:29;100390.84;;;13.03;34.90
50550;BME280;36505;52.512;13.460;2023-04-25T12:40:56;100386.53;;;13.18;35.21
50550;BME280;36505;52.512;13.460;2023-04-25T12:43:22;100386.31;;;13.34;34.82
50550;BME280;36505;52.512;13.460;2023-04-25T12:45:52;100386.09;;;13.61;34.96
50550;BME280;36505;52.512;13.460;2023-04-25T12:48:18;100399.59;;;13.83;34.94
50550;BME280;36505;52.512;13.460;2023-04-25T12:50:44;100402.63;;;13.97;34.66
50550;BME280;36505;52.512;13.460;2023-04-25T12:53:10;100396.00;;;13.88;34.10
50550;BME280;36505;52.512;13.460;2023-04-25T12:55:36;100401.25;;;13.89;34.45
50550;BME280;36505;52.512;13.460;2023-04-25T12:58:02;100397.41;;;13.85;34.34